Time;durP1;ratioP1;P1;durP2;ratioP2;P2;SDS_P1;SDS_P2;PMS_P1;PMS_P2;Temp;Humidity;BMP_temperature;BMP_pressure;BME280_temperature;BME280_humidity;BME280_pressure;Samples;Min_cycle;Max_cycle;Signal;HPM_P1;HPM_P2
2023/03/16 00:00:21;;;;;;;0.70;0.43;;;5.90;99.80;;;5.82;63.94;94122.53;5076033;28;20443;-58
2023/03/16 00:02:48;;;;;;;0.80;0.60;;;5.90;99.90;;;5.79;63.32;94120.19;5070302;28;20475;-57
2023/03/16 00:05:15;;;;;;;1.00;0.70;;;5.90;99.90;;;5.77;63.55;94122.09;5072853;28;20982;-55
2023/03/16 00:07:43;;;;;;;0.80;0.60;;;5.80;99.90;;;5.74;63.73;94121.38;5077895;28;20467;-57
2023/03/16 00:10:12;;;;;;;0.80;0.70;;;5.80;99.90;;;5.73;63.99;94122.34;5066583;28;20524;-57
2023/03/16 00:12:42;;;;;;;0.90;0.80;;;5.80;99.90;;;5.73;63.84;94132.78;5066556;28;21040;-58
2023/03/16 00:15:10;;;;;;;0.90;0.70;;;5.80;99.90;;;5.73;63.61;94121.50;5070898;28;21141;-59
2023/03/16 00:17:38;;;;;;;1.37;0.70;;;5.80;99.90;;;5.72;63.45;94135.53;5072657;28;20503;-59
2023/03/16 00:20:07;;;;;;;0.80;0.70;;;5.80;99.90;;;5.68;63.47;94137.53;5066995;28;20467;-55
2023/03/16 00:22:34;;;;;;;0.80;0.60;;;5.70;99.90;;;5.65;63.00;94137.81;5075617;28;20477;-57
2023/03/16 00:25:02;;;;;;;0.80;0.60;;;5.70;99.60;;;5.65;63.25;94134.38;5073010;28;20569;-55
2023/03/16 00:27:29;;;;;;;1.07;0.80;;;5.70;99.90;;;5.64;63.76;94141.38;5067329;28;20473;-58
2023/03/16 00:29:56;;;;;;;0.90;0.70;;;5.70;99.90;;;5.63;63.34;94138.91;5073190;28;20450;-59
2023/03/16 00:32:25;;;;;;;0.90;0.63;;;5.70;99.90;;;5.61;63.49;94146.84;5075579;28;20474;-57
2023/03/16 00:34:54;;;;;;;0.80;0.80;;;5.70;99.90;;;5.57;63.48;94138.44;5070087;28;20482;-55
2023/03/16 00:37:22;;;;;;;1.30;0.80;;;5.70;99.90;;;5.62;63.55;94142.47;5069659;28;20498;-57
2023/03/16 00:39:49;;;;;;;1.23;0.60;;;5.70;99.90;;;5.57;64.02;94150.66;5072681;28;20486;-57
2023/03/16 00:42:17;;;;;;;2.93;0.97;;;5.70;99.90;;;5.53;63.87;94154.47;5068552;28;20474;-58
2023/03/16 00:44:44;;;;;;;0.70;0.60;;;5.60;99.90;;;5.53;63.49;94154.47;5065286;28;20469;-58
2023/03/16 00:47:13;;;;;;;0.70;0.50;;;5.60;99.90;;;5.52;63.54;94152.84;5078198;28;20507;-62
2023/03/16 00:49:41;;;;;;;0.80;0.63;;;5.60;99.90;;;5.52;64.16;94158.88;5073105;28;20850;-58
2023/03/16 00:52:13;;;;;;;0.80;0.60;;;5.60;99.90;;;5.53;64.62;94162.28;5063321;28;20516;-57
2023/03/16 00:54:42;;;;;;;1.73;0.70;;;5.60;99.90;;;5.51;63.63;94156.38;5073850;28;20465;-55
2023/03/16 00:57:10;;;;;;;0.80;0.63;;;5.60;99.90;;;5.51;63.93;94157.22;5072217;28;20558;-58
2023/03/16 00:59:38;;;;;;;0.90;0.60;;;5.60;99.90;;;5.52;63.89;94163.28;5061042;28;20480;-55
2023/03/16 01:02:05;;;;;;;0.80;0.50;;;5.60;99.90;;;5.49;63.86;94156.50;5076345;28;20500;-58
2023/03/16 01:04:34;;;;;;;0.70;0.50;;;5.60;99.90;;;5.48;63.98;94156.66;5070217;28;20459;-56
2023/03/16 01:07:02;;;;;;;0.90;0.60;;;5.60;99.90;;;5.46;63.58;94146.34;5065093;28;20486;-57
2023/03/16 01:09:35;;;;;;;0.80;0.67;;;5.60;99.90;;;5.46;63.72;94148.13;5071709;28;20548;-59
2023/03/16 01:12:05;;;;;;;0.80;0.50;;;5.60;99.90;;;5.45;63.62;94159.50;5076398;28;20499;-57
2023/03/16 01:14:33;;;;;;;0.90;0.70;;;5.50;99.90;;;5.41;63.47;94160.69;5066462;28;20899;-58
2023/03/16 01:17:01;;;;;;;1.00;0.63;;;5.50;99.90;;;5.36;63.80;94164.53;5066932;28;20513;-56
2023/03/16 01:19:28;;;;;;;0.80;0.53;;;5.50;99.90;;;5.34;63.82;94166.41;5077126;28;20546;-57
2023/03/16 01:21:56;;;;;;;1.10;0.80;;;5.40;99.90;;;5.32;63.64;94167.50;5070738;28;20560;-58
2023/03/16 01:24:23;;;;;;;0.70;0.50;;;5.40;99.90;;;5.31;63.27;94164.06;5064527;28;20463;-59
2023/03/16 01:26:53;;;;;;;0.80;0.50;;;5.40;99.90;;;5.30;63.54;94165.03;5075702;28;20668;-57
2023/03/16 01:29:20;;;;;;;0.70;0.50;;;5.40;99.80;;;5.30;63.47;94164.19;5074117;28;20846;-59
2023/03/16 01:31:48;;;;;;;1.03;0.60;;;5.40;99.90;;;5.27;63.53;94165.28;5065234;28;20855;-57
2023/03/16 01:34:17;;;;;;;0.70;0.50;;;5.40;99.80;;;5.23;63.54;94169.09;5075350;28;20578;-56
2023/03/16 01:36:44;;;;;;;1.20;0.50;;;5.30;99.80;;;5.19;63.42;94167.69;5071713;28;20493;-57
2023/03/16 01:39:12;;;;;;;0.70;0.50;;;5.30;99.70;;;5.17;63.06;94173.03;5060902;28;20500;-58
2023/03/16 01:41:40;;;;;;;0.80;0.50;;;5.30;99.60;;;5.16;62.96;94178.38;5071340;28;20483;-56
2023/03/16 01:44:12;;;;;;;0.77;0.50;;;5.30;99.50;;;5.14;63.25;94180.25;5074659;28;20520;-59
2023/03/16 01:46:40;;;;;;;0.80;0.60;;;5.20;99.50;;;5.08;63.36;94188.56;5057410;28;20477;-55
2023/03/16 01:49:09;;;;;;;1.00;0.50;;;5.20;99.70;;;5.05;63.65;94183.59;5064067;28;20462;-55
2023/03/16 01:51:42;;;;;;;0.70;0.50;;;5.20;99.80;;;5.04;63.47;94193.22;5071877;28;20500;-57
2023/03/16 01:54:17;;;;;;;0.70;0.50;;;5.10;99.70;;;5.00;63.33;94187.41;5068020;28;20513;-58
2023/03/16 01:56:48;;;;;;;0.70;0.50;;;5.10;99.70;;;4.96;63.81;94183.41;5068274;28;20501;-59
2023/03/16 01:59:17;;;;;;;0.80;0.63;;;5.10;99.90;;;4.94;63.95;94190.53;5063785;28;20840;-58
2023/03/16 02:01:45;;;;;;;0.70;0.50;;;5.10;99.90;;;4.92;64.08;94192.41;5071473;28;20548;-55
2023/03/16 02:04:21;;;;;;;0.90;0.70;;;5.00;99.90;;;4.88;64.18;94196.22;5065202;28;20528;-55
2023/03/16 02:06:49;;;;;;;0.70;0.50;;;5.00;99.90;;;4.85;64.17;94194.69;5077247;28;20994;-56
2023/03/16 02:09:16;;;;;;;0.80;0.60;;;5.00;99.90;;;4.81;64.31;94201.06;5069918;28;20458;-58
2023/03/16 02:11:44;;;;;;;0.70;0.50;;;5.00;99.90;;;4.78;64.77;94210.91;5057765;28;20544;-57
2023/03/16 02:14:11;;;;;;;0.70;0.53;;;4.90;99.90;;;4.72;65.31;94208.78;5076560;28;20946;-56
2023/03/16 02:16:40;;;;;;;0.70;0.57;;;4.90;99.90;;;4.67;65.28;94211.75;5073987;28;20498;-55
2023/03/16 02:19:09;;;;;;;1.20;0.60;;;4.80;99.90;;;4.63;66.57;94216.38;5071386;28;20435;-59
2023/03/16 02:21:42;;;;;;;0.80;0.50;;;4.80;99.90;;;4.62;66.52;94217.31;5071078;28;20474;-55
2023/03/16 02:24:10;;;;;;;0.80;0.60;;;4.80;99.90;;;4.60;65.29;94216.63;5073207;28;20992;-57
2023/03/16 02:26:43;;;;;;;0.90;0.60;;;4.70;99.90;;;4.58;66.55;94220.28;5070937;28;20573;-56
2023/03/16 02:29:24;;;;;;;0.70;0.50;;;4.70;99.90;;;4.55;66.36;94225.72;5072136;28;21082;-58
2023/03/16 02:31:53;;;;;;;0.90;0.50;;;4.70;99.90;;;4.52;66.58;94229.41;5074049;28;20519;-58
2023/03/16 02:34:20;;;;;;;0.70;0.50;;;4.70;99.90;;;4.52;66.14;94232.00;5072323;28;20518;-56
2023/03/16 02:36:47;;;;;;;0.70;0.53;;;4.70;99.90;;;4.53;66.51;94233.66;5068755;28;20702;-58
2023/03/16 02:39:15;;;;;;;0.70;0.50;;;4.70;99.90;;;4.56;66.80;94243.03;5078493;28;21031;-58
2023/03/16 02:41:42;;;;;;;1.40;0.67;;;4.70;99.90;;;4.56;66.14;94237.81;5066467;28;20486;-58
2023/03/16 02:44:14;;;;;;;1.03;0.53;;;4.70;99.90;;;4.55;66.94;94234.38;5055441;28;20459;-58
2023/03/16 02:46:42;;;;;;;0.80;0.60;;;4.70;99.90;;;4.54;65.85;94240.53;5065190;28;20505;-57
2023/03/16 02:49:15;;;;;;;1.17;0.60;;;4.70;99.90;;;4.52;66.25;94232.00;5068009;28;20459;-56
2023/03/16 02:51:42;;;;;;;0.80;0.60;;;4.70;99.90;;;4.52;66.13;94232.00;5065441;28;21128;-56
2023/03/16 02:54:09;;;;;;;1.00;0.50;;;4.70;99.90;;;4.52;66.20;94242.41;5071995;28;20983;-55
2023/03/16 02:56:37;;;;;;;0.70;0.50;;;4.70;99.90;;;4.52;66.78;94236.38;5067661;28;20985;-57
2023/03/16 02:59:04;;;;;;;0.70;0.50;;;4.60;99.90;;;4.51;66.40;94248.59;5056649;28;20463;-59
2023/03/16 03:01:33;;;;;;;4.70;0.90;;;4.60;99.90;;;4.51;66.22;94243.38;5067170;28;20812;-57
2023/03/16 03:04:01;;;;;;;0.70;0.70;;;4.60;99.90;;;4.48;66.13;94241.00;5071055;28;20455;-57
2023/03/16 03:06:31;;;;;;;0.73;0.60;;;4.60;99.90;;;4.47;66.01;94254.97;5066652;28;20542;-56
2023/03/16 03:08:58;;;;;;;0.70;0.50;;;4.60;99.90;;;4.46;65.85;94255.91;5068172;28;20447;-60
2023/03/16 03:11:25;;;;;;;0.80;0.60;;;4.60;99.90;;;4.43;65.81;94259.59;5076132;28;20466;-58
2023/03/16 03:13:53;;;;;;;0.80;0.57;;;4.60;99.90;;;4.40;65.97;94253.78;5071359;28;20805;-56
2023/03/16 03:16:20;;;;;;;0.70;0.50;;;4.60;99.90;;;4.38;65.70;94258.28;5067877;28;20479;-59
2023/03/16 03:18:48;;;;;;;1.00;0.60;;;4.50;99.90;;;4.36;65.83;94258.41;5077959;28;20939;-58
2023/03/16 03:21:15;;;;;;;0.80;0.50;;;4.50;99.90;;;4.34;67.13;94265.50;5072813;28;20451;-57
2023/03/16 03:23:45;;;;;;;0.80;0.70;;;4.50;99.90;;;4.33;66.95;94273.44;5066673;28;20533;-58
2023/03/16 03:26:13;;;;;;;0.80;0.60;;;4.50;99.90;;;4.32;65.94;94280.41;5073608;28;20462;-58
2023/03/16 03:28:41;;;;;;;0.70;0.50;;;4.50;99.90;;;4.29;66.01;94276.28;5068521;28;20535;-56
2023/03/16 03:31:08;;;;;;;0.70;0.40;;;4.50;99.90;;;4.27;66.01;94280.75;5070670;28;20529;-56
2023/03/16 03:33:35;;;;;;;0.70;0.43;;;4.40;99.90;;;4.23;66.19;94279.34;5077140;28;20466;-55
2023/03/16 03:36:03;;;;;;;0.80;0.57;;;4.40;99.90;;;4.21;66.21;94281.19;5074253;28;20490;-58
2023/03/16 03:38:30;;;;;;;0.70;0.40;;;4.40;99.90;;;4.18;65.48;94276.22;5065818;28;20545;-55
2023/03/16 03:40:59;;;;;;;0.70;0.40;;;4.30;99.90;;;4.18;65.77;94284.03;5067152;28;20521;-59
2023/03/16 03:43:26;;;;;;;1.00;0.80;;;4.30;99.90;;;4.15;65.09;94275.66;5077249;28;20486;-58
2023/03/16 03:45:57;;;;;;;0.80;0.50;;;4.30;99.90;;;4.12;65.86;94290.56;5074213;28;20454;-59
2023/03/16 03:48:24;;;;;;;0.90;0.63;;;4.30;99.90;;;4.11;65.97;94286.28;5071626;28;21007;-56
2023/03/16 03:50:52;;;;;;;0.80;0.50;;;4.30;99.90;;;4.12;65.71;94287.09;5080021;28;21078;-58
2023/03/16 03:53:19;;;;;;;0.80;0.60;;;4.20;99.90;;;4.14;65.59;94290.44;5073508;28;20553;-55
2023/03/16 03:55:48;;;;;;;0.90;0.60;;;4.30;99.90;;;4.15;65.54;94294.69;5063934;28;20508;-55
2023/03/16 03:58:17;;;;;;;0.80;0.53;;;4.30;99.90;;;4.19;66.10;94303.94;5076376;28;20482;-58
2023/03/16 04:00:44;;;;;;;1.20;0.80;;;4.30;99.90;;;4.19;65.26;94306.53;5074985;28;20480;-55
2023/03/16 04:03:11;;;;;;;0.80;0.50;;;4.30;99.90;;;4.16;64.98;94306.75;5070973;28;20937;-55
2023/03/16 04:05:39;;;;;;;1.27;0.93;;;4.30;99.90;;;4.14;65.31;94303.44;5068666;28;20458;-56
2023/03/16 04:08:06;;;;;;;1.63;1.00;;;4.30;99.90;;;4.13;65.87;94304.38;5079079;28;20474;-55
2023/03/16 04:10:33;;;;;;;0.80;0.70;;;4.30;99.90;;;4.13;65.16;94310.41;5069266;28;20468;-56
2023/03/16 04:13:01;;;;;;;1.10;0.60;;;4.30;99.90;;;4.13;65.39;94310.41;5069913;28;20504;-56
2023/03/16 04:15:31;;;;;;;0.80;0.50;;;4.30;99.90;;;4.13;65.94;94305.22;5073381;28;20462;-55
2023/03/16 04:17:59;;;;;;;0.70;0.60;;;4.30;99.90;;;4.16;65.41;94308.53;5073756;28;20465;-58
2023/03/16 04:20:28;;;;;;;1.00;0.60;;;4.30;99.90;;;4.17;65.31;94318.84;5068783;28;20523;-58
2023/03/16 04:22:57;;;;;;;0.70;0.40;;;4.30;99.90;;;4.20;65.06;94321.22;5080592;28;20474;-59
2023/03/16 04:25:25;;;;;;;0.77;0.50;;;4.30;99.90;;;4.21;64.78;94325.44;5075620;28;20589;-58
2023/03/16 04:27:52;;;;;;;0.80;0.50;;;4.30;99.90;;;4.21;65.67;94332.44;5062655;28;20481;-59
2023/03/16 04:30:20;;;;;;;0.80;0.50;;;4.30;99.90;;;4.21;65.37;94325.44;5070150;28;20515;-56
2023/03/16 04:32:48;;;;;;;0.80;0.50;;;4.40;99.90;;;4.22;65.16;94327.13;5069095;28;20556;-57
2023/03/16 04:35:16;;;;;;;0.70;0.50;;;4.30;99.90;;;4.22;65.30;94334.94;5068312;28;20813;-59
2023/03/16 04:37:43;;;;;;;0.70;0.50;;;4.30;99.90;;;4.21;64.81;94342.84;5071456;28;20883;-55
2023/03/16 04:40:15;;;;;;;0.70;0.60;;;4.30;99.90;;;4.19;64.62;94331.75;5069764;28;20550;-56
2023/03/16 04:42:43;;;;;;;1.00;0.50;;;4.30;99.90;;;4.17;65.99;94337.06;5067469;28;20565;-58
2023/03/16 04:45:11;;;;;;;0.80;0.60;;;4.30;99.90;;;4.18;65.41;94351.72;5068022;28;20816;-60
2023/03/16 04:47:39;;;;;;;1.00;0.83;;;4.30;99.90;;;4.20;65.47;94344.63;5077592;28;21158;-56
2023/03/16 04:50:09;;;;;;;0.90;0.80;;;4.30;99.90;;;4.18;65.34;94349.09;5073590;28;20455;-59
2023/03/16 04:52:36;;;;;;;0.80;0.80;;;4.30;99.90;;;4.15;65.52;94361.53;5059365;28;20468;-59
2023/03/16 04:55:04;;;;;;;0.93;0.80;;;4.30;99.90;;;4.08;66.11;94361.16;5079286;28;20474;-59
2023/03/16 04:57:32;;;;;;;0.90;0.80;;;4.30;99.90;;;4.03;65.71;94352.84;5070549;28;20640;-57
2023/03/16 04:59:59;;;;;;;1.33;0.97;;;4.20;99.90;;;4.00;66.52;94364.31;5055252;28;20447;-60
2023/03/16 05:02:26;;;;;;;0.80;0.70;;;4.20;99.90;;;4.00;66.62;94366.06;5067834;28;20483;-58
2023/03/16 05:04:54;;;;;;;1.07;0.97;;;4.10;99.90;;;4.03;65.77;94371.06;5068839;28;20459;-57
2023/03/16 05:07:23;;;;;;;0.70;0.53;;;4.10;99.90;;;4.06;66.11;94365.63;5057751;28;21043;-57
2023/03/16 05:09:50;;;;;;;1.40;1.30;;;4.20;99.90;;;4.09;67.35;94366.25;5066667;28;20566;-58
2023/03/16 05:12:18;;;;;;;1.20;1.10;;;4.20;99.90;;;4.13;66.49;94372.06;5069064;28;21031;-54
2023/03/16 05:14:45;;;;;;;0.70;0.60;;;4.20;99.90;;;4.17;68.21;94376.09;5065940;28;20563;-59
2023/03/16 05:17:13;;;;;;;1.37;1.27;;;4.30;99.90;;;4.22;67.40;94378.38;5065096;28;20501;-59
2023/03/16 05:19:41;;;;;;;3.23;0.60;;;4.30;99.90;;;4.29;67.24;94379.53;5071472;28;20570;-57
2023/03/16 05:22:08;;;;;;;1.00;0.80;;;4.40;99.90;;;4.32;66.10;94379.31;5067911;28;20478;-55
2023/03/16 05:24:37;;;;;;;0.80;0.60;;;4.40;99.90;;;4.33;65.84;94393.19;5063916;28;20459;-55
2023/03/16 05:27:05;;;;;;;1.40;0.80;;;4.50;99.90;;;4.30;66.01;94387.25;5071415;28;20487;-57
2023/03/16 05:29:32;;;;;;;1.10;0.50;;;4.50;99.90;;;4.29;65.81;94393.41;5070750;28;20474;-58
2023/03/16 05:31:59;;;;;;;2.40;0.50;;;4.40;99.90;;;4.26;68.03;94396.25;5064502;28;20494;-59
2023/03/16 05:34:27;;;;;;;8.73;2.47;;;4.40;99.90;;;4.30;67.29;94402.03;5064793;28;20531;-56
2023/03/16 05:36:54;;;;;;;12.60;8.77;;;4.40;99.90;;;4.36;67.38;94404.19;5064093;28;20922;-58
2023/03/16 05:39:22;;;;;;;1.30;1.20;;;4.50;99.90;;;4.42;67.09;94406.34;5065297;28;21223;-60
2023/03/16 05:41:51;;;;;;;1.73;1.20;;;4.50;99.90;;;4.46;67.27;94405.19;5073696;28;20480;-58
2023/03/16 05:44:18;;;;;;;0.83;0.70;;;4.60;99.90;;;4.48;66.01;94403.28;5063130;28;20458;-59
2023/03/16 05:46:45;;;;;;;1.00;0.70;;;4.60;99.90;;;4.49;65.98;94414.50;5060814;28;20587;-58
2023/03/16 05:49:12;;;;;;;1.07;0.97;;;4.60;99.90;;;4.49;65.62;94411.91;5071679;28;20563;-55
2023/03/16 05:51:40;;;;;;;0.93;0.83;;;4.60;99.90;;;4.47;65.76;94413.81;5076760;28;20556;-56
2023/03/16 05:54:07;;;;;;;0.87;0.60;;;4.60;99.90;;;4.45;65.57;94418.31;5060260;28;20928;-60
2023/03/16 05:56:34;;;;;;;1.73;1.63;;;4.60;99.90;;;4.41;65.54;94422.06;5058723;28;20573;-59
2023/03/16 05:59:03;;;;;;;1.50;1.40;;;4.50;99.90;;;4.38;65.35;94423.13;5075413;28;21265;-56
2023/03/16 06:01:32;;;;;;;1.10;0.90;;;4.50;99.90;;;4.37;65.16;94425.84;5071469;28;20823;-55
2023/03/16 06:04:01;;;;;;;1.90;1.73;;;4.50;99.90;;;4.38;65.17;94433.53;5065619;28;20451;-58
2023/03/16 06:06:28;;;;;;;1.43;0.90;;;4.50;99.90;;;4.42;65.47;94434.16;5076771;28;20455;-54
2023/03/16 06:08:56;;;;;;;1.07;0.90;;;4.50;99.90;;;4.43;65.31;94428.84;5074047;28;20459;-57
2023/03/16 06:11:23;;;;;;;1.00;0.90;;;4.50;99.90;;;4.44;65.13;94443.50;5066730;28;20951;-55
2023/03/16 06:13:50;;;;;;;1.03;0.63;;;4.50;99.90;;;4.43;64.90;94431.44;5073344;28;20828;-56
2023/03/16 06:16:19;;;;;;;0.77;0.53;;;4.60;99.90;;;4.44;64.56;94438.28;5073675;28;20450;-54
2023/03/16 06:18:46;;;;;;;0.80;0.80;;;4.60;99.90;;;4.39;65.05;94444.81;5061089;28;20551;-56
2023/03/16 06:21:14;;;;;;;0.80;0.60;;;4.50;99.90;;;4.39;65.04;94448.22;5067091;28;20465;-59
2023/03/16 06:23:41;;;;;;;1.37;1.00;;;4.50;99.90;;;4.41;65.07;94450.72;5063829;28;20960;-59
2023/03/16 06:26:08;;;;;;;1.47;0.63;;;4.50;99.90;;;4.45;64.92;94454.75;5066694;28;21001;-59
2023/03/16 06:28:35;;;;;;;0.87;0.80;;;4.50;99.90;;;4.47;65.08;94458.91;5060157;28;20455;-57
2023/03/16 06:31:03;;;;;;;1.50;0.77;;;4.60;99.90;;;4.47;64.54;94468.50;5064752;28;20579;-58
2023/03/16 06:33:31;;;;;;;1.17;0.90;;;4.60;99.90;;;4.45;64.43;94465.19;5061266;28;20575;-59
2023/03/16 06:35:59;;;;;;;1.93;0.60;;;4.60;99.90;;;4.47;64.21;94473.69;5052222;28;20458;-59
2023/03/16 06:38:26;;;;;;;1.00;0.90;;;4.60;99.90;;;4.45;64.16;94476.41;5073947;28;20495;-57
2023/03/16 06:40:53;;;;;;;2.60;0.80;;;4.60;99.90;;;4.42;64.27;94479.25;5067192;28;21372;-59
2023/03/16 06:43:21;;;;;;;2.07;0.90;;;4.50;99.90;;;4.40;64.84;94480.28;5059127;28;20486;-55
2023/03/16 06:45:48;;;;;;;1.40;0.73;;;4.50;99.90;;;4.39;64.51;94481.25;5063204;28;20884;-59
2023/03/16 06:48:15;;;;;;;0.93;0.83;;;4.50;99.90;;;4.38;64.89;94484.78;5073609;28;20488;-58
2023/03/16 06:50:45;;;;;;;0.80;0.70;;;4.50;99.90;;;4.39;65.40;94492.50;5070544;28;20481;-55
2023/03/16 06:53:12;;;;;;;0.83;0.80;;;4.50;99.90;;;4.39;64.67;94494.28;5072371;28;20535;-56
2023/03/16 06:55:40;;;;;;;0.90;0.60;;;4.50;99.90;;;4.39;64.76;94491.66;5076323;28;20462;-55
2023/03/16 06:58:07;;;;;;;1.40;0.80;;;4.50;99.90;;;4.38;64.94;94508.22;5069757;28;20973;-55
2023/03/16 07:00:34;;;;;;;1.40;1.30;;;4.50;99.90;;;4.38;64.96;94501.22;5067386;28;20455;-59
2023/03/16 07:03:02;;;;;;;2.60;1.00;;;4.50;99.90;;;4.38;64.95;94509.03;5076793;28;20535;-59
2023/03/16 07:05:30;;;;;;;1.77;1.00;;;4.50;99.90;;;4.38;65.03;94514.25;5075107;28;20450;-59
2023/03/16 07:07:58;;;;;;;1.10;1.00;;;4.50;99.90;;;4.38;65.41;94516.03;5072000;28;20478;-59
2023/03/16 07:10:26;;;;;;;1.40;1.30;;;4.50;99.90;;;4.39;66.10;94512.50;5071743;28;20868;-56
2023/03/16 07:12:54;;;;;;;1.27;1.17;;;4.50;99.90;;;4.41;64.99;94523.63;5076306;28;20477;-57
2023/03/16 07:15:21;;;;;;;1.27;0.83;;;4.50;99.90;;;4.43;65.08;94519.97;5073709;28;20839;-57
2023/03/16 07:17:48;;;;;;;2.43;1.27;;;4.50;99.90;;;4.45;64.65;94522.47;5077055;28;20570;-56
2023/03/16 07:20:16;;;;;;;1.43;1.07;;;4.60;99.90;;;4.47;65.50;94524.00;5080855;28;20458;-58
2023/03/16 07:22:43;;;;;;;1.97;1.20;;;4.60;99.90;;;4.53;65.06;94529.72;5072059;28;20481;-54
2023/03/16 07:25:12;;;;;;;1.13;1.03;;;4.60;99.90;;;4.58;64.57;94523.22;5072687;28;20457;-59
2023/03/16 07:27:42;;;;;;;4.50;1.00;;;4.70;99.90;;;4.58;64.29;94523.22;5079719;28;20474;-58
2023/03/16 07:30:13;;;;;;;0.80;0.60;;;4.70;99.90;;;4.63;64.73;94528.09;5076137;28;20515;-59
2023/03/16 07:32:40;;;;;;;0.70;0.50;;;4.70;99.90;;;4.69;64.14;94525.03;5056045;28;20558;-57
2023/03/16 07:35:09;;;;;;;1.30;0.80;;;4.80;99.90;;;4.74;63.69;94537.72;5081266;28;21045;-56
2023/03/16 07:37:36;;;;;;;0.80;0.80;;;4.80;99.90;;;4.75;63.78;94535.00;5061688;28;20828;-57
2023/03/16 07:40:05;;;;;;;1.10;0.80;;;4.90;99.90;;;4.78;63.78;94539.16;5060086;28;20500;-58
2023/03/16 07:42:34;;;;;;;0.80;0.80;;;4.90;99.90;;;4.81;63.69;94534.56;5077078;28;20517;-60
2023/03/16 07:45:02;;;;;;;0.87;0.77;;;4.90;99.90;;;4.85;63.35;94543.81;5069750;28;21162;-59
2023/03/16 07:47:30;;;;;;;1.57;1.03;;;5.00;99.90;;;4.89;63.16;94543.59;5063370;28;20872;-55
2023/03/16 07:49:57;;;;;;;1.43;0.70;;;5.00;99.70;;;4.89;62.92;94547.03;5079922;28;20537;-59
2023/03/16 07:52:25;;;;;;;1.53;1.20;;;5.00;99.60;;;4.87;62.57;94551.53;5076908;28;20476;-59
2023/03/16 07:54:52;;;;;;;1.23;0.73;;;5.00;99.40;;;4.85;62.78;94553.41;5075206;28;20451;-57
2023/03/16 07:57:19;;;;;;;1.40;0.87;;;5.00;99.40;;;4.84;62.55;94544.75;5066854;28;20493;-56
2023/03/16 07:59:48;;;;;;;1.53;1.40;;;5.00;99.50;;;4.84;62.95;94544.75;5078393;28;20461;-59
2023/03/16 08:02:16;;;;;;;0.80;0.70;;;5.00;99.70;;;4.90;62.88;94548.69;5073074;28;20478;-57
2023/03/16 08:04:44;;;;;;;0.90;0.80;;;5.00;99.70;;;4.94;62.83;94546.69;5065837;28;20451;-59
2023/03/16 08:07:11;;;;;;;3.33;0.70;;;5.00;99.60;;;4.96;62.56;94548.25;5079007;28;20469;-57
2023/03/16 08:09:40;;;;;;;0.93;0.83;;;5.10;99.40;;;4.96;62.78;94545.63;5076389;28;20447;-56
2023/03/16 08:12:08;;;;;;;0.80;0.60;;;5.10;99.60;;;4.98;63.00;94551.56;5063511;28;20475;-59
2023/03/16 08:14:35;;;;;;;0.80;0.50;;;5.10;99.60;;;5.00;62.58;94554.91;5079604;28;21001;-59
2023/03/16 08:17:04;;;;;;;1.10;1.00;;;5.10;99.40;;;5.06;62.63;94557.97;5076849;28;20569;-56
2023/03/16 08:19:32;;;;;;;0.90;0.80;;;5.20;99.60;;;5.11;62.63;94555.84;5068887;28;20468;-55
2023/03/16 08:22:00;;;;;;;2.70;0.70;;;5.20;99.50;;;5.17;62.30;94563.22;5071988;28;20478;-56
2023/03/16 08:24:28;;;;;;;1.63;0.90;;;5.20;99.10;;;5.20;61.79;94565.59;5077364;28;20967;-55
2023/03/16 08:26:56;;;;;;;0.97;0.87;;;5.30;99.00;;;5.22;62.14;94566.34;5070395;28;20466;-54
2023/03/16 08:29:23;;;;;;;0.90;0.70;;;5.30;99.10;;;5.28;61.65;94571.06;5070372;28;20446;-60
2023/03/16 08:31:51;;;;;;;1.67;1.30;;;5.30;98.70;;;5.27;61.45;94574.63;5080704;28;20511;-56
2023/03/16 08:34:20;;;;;;;1.30;0.97;;;5.40;98.50;;;5.31;61.08;94572.63;5071697;28;20466;-54
2023/03/16 08:36:47;;;;;;;1.10;1.00;;;5.40;98.30;;;5.33;61.25;94579.38;5070348;28;20466;-55
2023/03/16 08:39:15;;;;;;;0.80;0.70;;;5.40;98.20;;;5.38;61.04;94579.84;5080402;28;20498;-57
2023/03/16 08:41:42;;;;;;;1.20;0.60;;;5.50;98.30;;;5.39;61.00;94576.31;5075232;28;20475;-58
2023/03/16 08:44:09;;;;;;;0.87;0.73;;;5.50;98.30;;;5.42;60.72;94572.63;5068989;28;20461;-56
2023/03/16 08:46:38;;;;;;;1.23;1.13;;;5.50;98.10;;;5.41;61.06;94575.34;5074939;28;20470;-59
2023/03/16 08:49:05;;;;;;;1.30;1.10;;;5.50;98.30;;;5.44;60.81;94569.91;5075465;28;20837;-59
2023/03/16 08:51:34;;;;;;;0.93;0.83;;;5.50;98.10;;;5.47;60.24;94578.34;5060906;28;20960;-59
2023/03/16 08:54:01;;;;;;;0.90;0.60;;;5.60;97.50;;;5.51;60.03;94581.53;5066444;28;20521;-56
2023/03/16 08:56:29;;;;;;;0.80;0.70;;;5.60;97.50;;;5.53;60.31;94583.09;5036375;28;1147219;-59
2023/03/16 08:58:57;;;;;;;1.00;0.80;;;5.60;97.70;;;5.57;60.20;94586.28;5071427;28;20282;-56
2023/03/16 09:01:25;;;;;;;1.00;0.90;;;5.70;97.50;;;5.60;60.04;94587.84;5068736;28;20541;-57
2023/03/16 09:03:53;;;;;;;4.10;1.10;;;5.70;97.30;;;5.62;59.90;94592.00;5077583;28;20465;-59
2023/03/16 09:06:21;;;;;;;1.10;0.80;;;5.70;97.40;;;5.60;60.09;94586.06;5072940;28;20458;-57
2023/03/16 09:08:50;;;;;;;3.80;0.70;;;5.70;97.30;;;5.60;60.18;94591.28;5071798;28;20509;-59
2023/03/16 09:11:18;;;;;;;1.20;0.90;;;5.70;97.40;;;5.64;61.24;94591.88;5078585;28;20442;-60
2023/03/16 09:13:46;;;;;;;3.30;0.80;;;5.70;98.20;;;5.70;61.68;94587.03;5075455;28;20454;-59
2023/03/16 09:16:14;;;;;;;4.00;2.60;;;5.80;98.70;;;5.80;61.09;94594.97;5069820;28;20465;-56
2023/03/16 09:18:41;;;;;;;4.60;1.00;;;5.90;98.40;;;5.86;60.67;94591.06;5077979;28;20489;-59
2023/03/16 09:21:11;;;;;;;1.27;1.00;;;5.90;98.00;;;5.88;60.23;94600.44;5072652;28;20451;-56
2023/03/16 09:23:40;;;;;;;1.23;1.13;;;6.00;97.80;;;5.86;59.93;94599.72;5066072;28;20455;-58
2023/03/16 09:26:09;;;;;;;1.20;1.10;;;6.00;97.30;;;5.81;60.03;94601.03;5068985;28;20720;-57
2023/03/16 09:28:39;;;;;;;1.13;1.03;;;5.90;97.40;;;5.77;59.36;94594.41;5070908;28;20443;-59
2023/03/16 09:31:07;;;;;;;1.00;0.90;;;5.90;96.90;;;5.76;59.89;94601.38;5070124;28;20473;-59
2023/03/16 09:33:35;;;;;;;0.90;0.80;;;5.90;97.00;;;5.76;60.05;94603.97;5072939;28;20478;-56
2023/03/16 09:36:02;;;;;;;2.80;1.30;;;5.80;97.20;;;5.75;59.80;94603.16;5079155;28;20452;-58
2023/03/16 09:38:31;;;;;;;1.10;1.00;;;5.80;97.20;;;5.79;59.88;94600.31;5072868;28;21031;-55
2023/03/16 09:41:00;;;;;;;1.20;1.10;;;5.90;97.00;;;5.68;59.63;94607.19;5067622;28;20458;-58
2023/03/16 09:43:44;;;;;;;1.00;0.90;;;5.80;96.70;;;5.58;60.06;94606.22;5077554;28;20556;-56
2023/03/16 09:46:14;;;;;;;1.07;1.00;;;5.70;97.10;;;5.55;60.72;94609.06;5074062;28;20449;-59
2023/03/16 09:48:41;;;;;;;1.13;1.00;;;5.70;97.30;;;5.53;60.38;94613.56;5068603;28;20457;-57
2023/03/16 09:51:18;;;;;;;1.60;1.50;;;5.60;97.30;;;5.55;60.43;94614.28;5080501;28;20457;-59
2023/03/16 09:53:46;;;;;;;1.27;1.17;;;5.60;97.50;;;5.56;60.00;94610.72;5071027;28;20454;-59
2023/03/16 09:56:17;;;;;;;1.90;1.70;;;5.70;97.30;;;5.53;59.91;94616.16;5069257;28;20985;-55
2023/03/16 09:58:45;;;;;;;1.47;1.27;;;5.70;97.20;;;5.52;60.22;94612.72;5073565;28;20477;-55
2023/03/16 10:01:17;;;;;;;1.00;0.90;;;5.60;97.50;;;5.55;60.23;94616.91;5075709;28;20516;-57
2023/03/16 10:04:09;;;;;;;2.73;1.30;;;5.70;97.40;;;5.57;60.01;94615.00;5062965;28;20454;-55
2023/03/16 10:06:37;;;;;;;2.70;1.40;;;5.60;97.10;;;5.60;60.21;94614.75;5076198;28;20531;-58
2023/03/16 10:09:25;;;;;;;1.30;1.17;;;5.70;97.10;;;5.67;60.25;94618.56;5074583;28;20454;-57
2023/03/16 10:11:53;;;;;;;1.60;1.30;;;5.70;97.20;;;5.75;59.30;94618.81;5067463;28;21103;-57
2023/03/16 10:14:25;;;;;;;2.30;1.33;;;5.80;96.90;;;5.81;59.38;94616.69;5072708;28;20537;-58
2023/03/16 10:16:54;;;;;;;1.40;1.30;;;5.90;96.80;;;5.86;58.90;94617.19;5072786;28;20475;-56
2023/03/16 10:19:32;;;;;;;1.40;1.30;;;5.90;96.50;;;5.88;58.78;94602.22;5071503;28;20541;-54
2023/03/16 10:22:00;;;;;;;1.23;1.13;;;6.00;96.40;;;5.89;58.72;94611.72;5072032;28;20578;-56
2023/03/16 10:24:38;;;;;;;1.53;1.43;;;6.00;95.90;;;5.87;58.96;94608.38;5073891;28;21050;-55
2023/03/16 10:27:06;;;;;;;1.23;1.13;;;6.00;96.20;;;5.85;58.77;94607.69;5068332;28;20490;-55
2023/03/16 10:29:36;;;;;;;1.37;1.27;;;6.00;96.20;;;5.84;58.91;94612.06;5066811;28;20487;-58
2023/03/16 10:32:13;;;;;;;1.60;1.50;;;5.90;96.00;;;5.86;58.80;94609.34;5078182;28;21028;-59
2023/03/16 10:34:40;;;;;;;1.10;1.00;;;6.00;96.20;;;5.86;58.70;94611.97;5071670;28;20906;-60
2023/03/16 10:37:10;;;;;;;1.07;0.97;;;6.00;96.20;;;5.85;58.58;94618.13;5068088;28;20475;-56